sensor_id;sensor_type;location;lat;lon;timestamp;P1;durP1;ratioP1;P2;durP2;ratioP2
579;SDS011;276;48.392;9.950;2023-03-19T00:00:24;5.50;;;5.10;;
579;SDS011;276;48.392;9.950;2023-03-19T00:02:52;5.87;;;4.63;;
579;SDS011;276;48.392;9.950;2023-03-19T00:05:20;5.50;;;4.97;;
579;SDS011;276;48.392;9.950;2023-03-19T00:07:47;5.47;;;4.97;;
579;SDS011;276;48.392;9.950;2023-03-19T00:10:16;6.20;;;5.23;;
579;SDS011;276;48.392;9.950;2023-03-19T00:12:41;9.80;;;5.93;;
579;SDS011;276;48.392;9.950;2023-03-19T00:15:07;4.60;;;4.30;;
579;SDS011;276;48.392;9.950;2023-03-19T00:17:37;5.87;;;5.37;;
579;SDS011;276;48.392;9.950;2023-03-19T00:20:03;5.87;;;4.60;;
579;SDS011;276;48.392;9.950;2023-03-19T00:22:30;6.87;;;5.83;;
579;SDS011;276;48.392;9.950;2023-03-19T00:24:55;7.00;;;6.40;;
579;SDS011;276;48.392;9.950;2023-03-19T00:27:26;6.03;;;5.43;;
579;SDS011;276;48.392;9.950;2023-03-19T00:29:54;8.50;;;5.50;;
579;SDS011;276;48.392;9.950;2023-03-19T00:32:22;5.77;;;5.37;;
579;SDS011;276;48.392;9.950;2023-03-19T00:34:47;5.90;;;5.30;;
579;SDS011;276;48.392;9.950;2023-03-19T00:37:15;7.73;;;5.03;;
579;SDS011;276;48.392;9.950;2023-03-19T00:39:41;5.30;;;4.80;;
579;SDS011;276;48.392;9.950;2023-03-19T00:42:09;5.57;;;5.07;;
579;SDS011;276;48.392;9.950;2023-03-19T00:44:35;4.93;;;4.43;;
579;SDS011;276;48.392;9.950;2023-03-19T00:47:00;4.93;;;4.47;;
579;SDS011;276;48.392;9.950;2023-03-19T00:49:28;6.40;;;5.80;;
579;SDS011;276;48.392;9.950;2023-03-19T00:51:54;7.13;;;4.57;;
579;SDS011;276;48.392;9.950;2023-03-19T00:54:20;4.57;;;3.80;;
579;SDS011;276;48.392;9.950;2023-03-19T00:56:47;8.63;;;4.40;;
579;SDS011;276;48.392;9.950;2023-03-19T00:59:13;4.87;;;4.47;;
579;SDS011;276;48.392;9.950;2023-03-19T01:01:38;4.50;;;4.13;;
579;SDS011;276;48.392;9.950;2023-03-19T01:04:04;5.70;;;4.70;;
579;SDS011;276;48.392;9.950;2023-03-19T01:06:30;5.00;;;4.60;;
579;SDS011;276;48.392;9.950;2023-03-19T01:08:56;5.40;;;4.50;;
579;SDS011;276;48.392;9.950;2023-03-19T01:11:24;4.80;;;3.60;;
579;SDS011;276;48.392;9.950;2023-03-19T01:13:50;4.70;;;3.90;;
579;SDS011;276;48.392;9.950;2023-03-19T01:16:18;5.13;;;4.10;;
579;SDS011;276;48.392;9.950;2023-03-19T01:18:46;4.20;;;3.90;;
579;SDS011;276;48.392;9.950;2023-03-19T01:21:15;4.53;;;4.13;;
579;SDS011;276;48.392;9.950;2023-03-19T01:23:41;6.23;;;4.53;;
579;SDS011;276;48.392;9.950;2023-03-19T01:26:07;5.13;;;3.83;;
579;SDS011;276;48.392;9.950;2023-03-19T01:28:35;5.37;;;4.27;;
579;SDS011;276;48.392;9.950;2023-03-19T01:31:04;3.80;;;3.47;;
579;SDS011;276;48.392;9.950;2023-03-19T01:33:31;4.30;;;3.90;;
579;SDS011;276;48.392;9.950;2023-03-19T01:35:57;5.43;;;4.27;;
579;SDS011;276;48.392;9.950;2023-03-19T01:38:26;6.63;;;4.07;;
579;SDS011;276;48.392;9.950;2023-03-19T01:40:52;5.07;;;4.57;;
579;SDS011;276;48.392;9.950;2023-03-19T01:45:45;4.20;;;3.80;;
579;SDS011;276;48.392;9.950;2023-03-19T01:48:24;3.87;;;3.23;;
579;SDS011;276;48.392;9.950;2023-03-19T01:50:57;4.90;;;4.30;;
579;SDS011;276;48.392;9.950;2023-03-19T01:53:26;4.73;;;4.17;;
579;SDS011;276;48.392;9.950;2023-03-19T01:55:55;4.33;;;3.93;;
579;SDS011;276;48.392;9.950;2023-03-19T01:58:32;5.80;;;3.70;;
579;SDS011;276;48.392;9.950;2023-03-19T02:01:00;7.13;;;5.90;;
579;SDS011;276;48.392;9.950;2023-03-19T02:03:27;8.90;;;8.00;;
579;SDS011;276;48.392;9.950;2023-03-19T02:05:53;9.90;;;9.07;;
579;SDS011;276;48.392;9.950;2023-03-19T02:08:22;10.03;;;9.00;;
579;SDS011;276;48.392;9.950;2023-03-19T02:10:51;9.60;;;8.70;;
579;SDS011;276;48.392;9.950;2023-03-19T02:13:19;9.60;;;8.80;;
579;SDS011;276;48.392;9.950;2023-03-19T02:15:46;8.60;;;7.90;;
579;SDS011;276;48.392;9.950;2023-03-19T02:18:13;9.60;;;8.70;;
579;SDS011;276;48.392;9.950;2023-03-19T02:23:29;9.83;;;8.83;;
579;SDS011;276;48.392;9.950;2023-03-19T02:26:12;8.57;;;7.77;;
579;SDS011;276;48.392;9.950;2023-03-19T02:28:41;8.00;;;7.27;;
579;SDS011;276;48.392;9.950;2023-03-19T02:31:11;8.07;;;7.07;;
579;SDS011;276;48.392;9.950;2023-03-19T02:33:40;10.70;;;7.77;;
579;SDS011;276;48.392;9.950;2023-03-19T02:36:09;7.83;;;7.23;;
579;SDS011;276;48.392;9.950;2023-03-19T02:38:41;8.57;;;7.63;;
579;SDS011;276;48.392;9.950;2023-03-19T02:41:10;7.10;;;6.47;;
579;SDS011;276;48.392;9.950;2023-03-19T02:43:37;7.53;;;6.93;;
579;SDS011;276;48.392;9.950;2023-03-19T02:46:05;7.43;;;6.73;;
579;SDS011;276;48.392;9.950;2023-03-19T02:48:35;7.97;;;7.27;;
579;SDS011;276;48.392;9.950;2023-03-19T02:51:02;6.87;;;6.23;;
579;SDS011;276;48.392;9.950;2023-03-19T02:53:30;6.90;;;6.30;;
579;SDS011;276;48.392;9.950;2023-03-19T02:55:58;11.73;;;6.83;;
579;SDS011;276;48.392;9.950;2023-03-19T02:58:24;8.50;;;7.50;;
579;SDS011;276;48.392;9.950;2023-03-19T03:00:50;7.30;;;6.60;;
579;SDS011;276;48.392;9.950;2023-03-19T03:03:16;6.50;;;6.00;;
579;SDS011;276;48.392;9.950;2023-03-19T03:05:44;6.73;;;5.00;;
579;SDS011;276;48.392;9.950;2023-03-19T03:08:10;4.73;;;3.93;;
579;SDS011;276;48.392;9.950;2023-03-19T03:10:38;3.93;;;3.10;;
579;SDS011;276;48.392;9.950;2023-03-19T03:13:03;3.03;;;2.37;;
579;SDS011;276;48.392;9.950;2023-03-19T03:15:31;2.73;;;2.53;;
579;SDS011;276;48.392;9.950;2023-03-19T03:17:59;2.07;;;1.70;;
579;SDS011;276;48.392;9.950;2023-03-19T03:20:28;1.90;;;1.80;;
579;SDS011;276;48.392;9.950;2023-03-19T03:22:53;2.40;;;1.80;;
579;SDS011;276;48.392;9.950;2023-03-19T03:25:19;1.60;;;1.50;;
579;SDS011;276;48.392;9.950;2023-03-19T03:27:47;1.80;;;1.60;;
579;SDS011;276;48.392;9.950;2023-03-19T03:30:13;2.60;;;1.53;;
579;SDS011;276;48.392;9.950;2023-03-19T03:32:40;2.07;;;1.33;;
579;SDS011;276;48.392;9.950;2023-03-19T03:35:06;1.90;;;1.80;;
579;SDS011;276;48.392;9.950;2023-03-19T03:37:33;2.90;;;2.27;;
579;SDS011;276;48.392;9.950;2023-03-19T03:39:59;2.40;;;1.97;;
579;SDS011;276;48.392;9.950;2023-03-19T03:42:24;2.77;;;1.90;;
579;SDS011;276;48.392;9.950;2023-03-19T03:44:52;4.43;;;1.87;;
579;SDS011;276;48.392;9.950;2023-03-19T03:47:18;2.27;;;2.00;;
579;SDS011;276;48.392;9.950;2023-03-19T03:49:44;3.40;;;2.43;;
579;SDS011;276;48.392;9.950;2023-03-19T03:52:09;2.53;;;2.33;;
579;SDS011;276;48.392;9.950;2023-03-19T03:54:35;2.37;;;2.17;;
579;SDS011;276;48.392;9.950;2023-03-19T03:57:01;3.10;;;2.10;;
579;SDS011;276;48.392;9.950;2023-03-19T03:59:28;3.37;;;2.20;;
579;SDS011;276;48.392;9.950;2023-03-19T04:01:56;2.20;;;2.00;;
579;SDS011;276;48.392;9.950;2023-03-19T04:04:24;3.33;;;1.90;;
579;SDS011;276;48.392;9.950;2023-03-19T04:06:55;2.87;;;2.20;;
579;SDS011;276;48.392;9.950;2023-03-19T04:09:21;2.70;;;2.00;;
579;SDS011;276;48.392;9.950;2023-03-19T04:11:47;3.13;;;2.67;;
579;SDS011;276;48.392;9.950;2023-03-19T04:14:13;2.47;;;2.00;;
579;SDS011;276;48.392;9.950;2023-03-19T04:16:38;3.17;;;2.87;;
579;SDS011;276;48.392;9.950;2023-03-19T04:19:04;2.53;;;2.33;;
579;SDS011;276;48.392;9.950;2023-03-19T04:21:34;4.77;;;3.23;;
579;SDS011;276;48.392;9.950;2023-03-19T04:23:59;3.30;;;2.83;;
579;SDS011;276;48.392;9.950;2023-03-19T04:26:26;2.83;;;2.63;;
579;SDS011;276;48.392;9.950;2023-03-19T04:28:51;3.20;;;2.67;;
579;SDS011;276;48.392;9.950;2023-03-19T04:31:19;3.47;;;3.10;;
579;SDS011;276;48.392;9.950;2023-03-19T04:33:46;3.37;;;3.07;;
579;SDS011;276;48.392;9.950;2023-03-19T04:36:13;3.33;;;2.87;;
579;SDS011;276;48.392;9.950;2023-03-19T04:38:41;5.00;;;2.87;;
579;SDS011;276;48.392;9.950;2023-03-19T04:41:07;2.77;;;2.57;;
579;SDS011;276;48.392;9.950;2023-03-19T04:43:35;2.70;;;2.50;;
579;SDS011;276;48.392;9.950;2023-03-19T04:46:01;3.57;;;3.10;;
579;SDS011;276;48.392;9.950;2023-03-19T04:48:33;3.27;;;3.00;;
579;SDS011;276;48.392;9.950;2023-03-19T04:51:01;3.10;;;2.77;;
579;SDS011;276;48.392;9.950;2023-03-19T04:53:28;4.83;;;3.07;;
579;SDS011;276;48.392;9.950;2023-03-19T04:55:53;3.33;;;3.00;;
579;SDS011;276;48.392;9.950;2023-03-19T04:58:20;3.53;;;3.17;;
579;SDS011;276;48.392;9.950;2023-03-19T05:00:50;4.30;;;3.10;;
579;SDS011;276;48.392;9.950;2023-03-19T05:03:19;3.63;;;3.33;;
579;SDS011;276;48.392;9.950;2023-03-19T05:05:45;3.43;;;3.23;;
579;SDS011;276;48.392;9.950;2023-03-19T05:08:16;3.17;;;2.97;;
579;SDS011;276;48.392;9.950;2023-03-19T05:10:41;3.47;;;3.17;;
579;SDS011;276;48.392;9.950;2023-03-19T05:13:07;4.00;;;3.70;;
579;SDS011;276;48.392;9.950;2023-03-19T05:15:33;3.20;;;2.90;;
579;SDS011;276;48.392;9.950;2023-03-19T05:18:03;3.63;;;3.33;;
579;SDS011;276;48.392;9.950;2023-03-19T05:20:29;4.07;;;3.30;;
579;SDS011;276;48.392;9.950;2023-03-19T05:22:54;3.90;;;3.43;;
579;SDS011;276;48.392;9.950;2023-03-19T05:25:22;4.20;;;3.03;;
579;SDS011;276;48.392;9.950;2023-03-19T05:27:48;4.20;;;3.80;;
579;SDS011;276;48.392;9.950;2023-03-19T05:30:13;3.67;;;3.37;;
579;SDS011;276;48.392;9.950;2023-03-19T05:32:42;2.83;;;2.57;;
579;SDS011;276;48.392;9.950;2023-03-19T05:35:10;3.90;;;3.60;;
579;SDS011;276;48.392;9.950;2023-03-19T05:37:36;3.83;;;3.50;;
579;SDS011;276;48.392;9.950;2023-03-19T05:40:02;5.27;;;3.60;;
579;SDS011;276;48.392;9.950;2023-03-19T05:42:31;3.83;;;3.53;;
579;SDS011;276;48.392;9.950;2023-03-19T05:44:59;2.93;;;2.73;;
579;SDS011;276;48.392;9.950;2023-03-19T05:47:24;3.33;;;2.97;;
579;SDS011;276;48.392;9.950;2023-03-19T05:49:51;3.57;;;3.37;;
579;SDS011;276;48.392;9.950;2023-03-19T05:52:16;3.70;;;3.40;;
579;SDS011;276;48.392;9.950;2023-03-19T05:54:42;5.63;;;3.70;;
579;SDS011;276;48.392;9.950;2023-03-19T05:57:07;4.07;;;3.77;;
579;SDS011;276;48.392;9.950;2023-03-19T05:59:35;4.30;;;3.50;;
579;SDS011;276;48.392;9.950;2023-03-19T06:02:01;3.87;;;3.47;;
579;SDS011;276;48.392;9.950;2023-03-19T06:04:27;4.20;;;3.87;;
579;SDS011;276;48.392;9.950;2023-03-19T06:06:52;4.03;;;3.73;;
579;SDS011;276;48.392;9.950;2023-03-19T06:09:18;4.70;;;4.30;;
579;SDS011;276;48.392;9.950;2023-03-19T06:11:43;4.23;;;3.83;;
579;SDS011;276;48.392;9.950;2023-03-19T06:14:09;4.43;;;4.00;;
579;SDS011;276;48.392;9.950;2023-03-19T06:16:34;3.70;;;3.37;;
579;SDS011;276;48.392;9.950;2023-03-19T06:19:03;4.80;;;4.10;;
579;SDS011;276;48.392;9.950;2023-03-19T06:21:31;4.60;;;4.20;;
579;SDS011;276;48.392;9.950;2023-03-19T06:23:57;3.80;;;3.30;;
579;SDS011;276;48.392;9.950;2023-03-19T06:26:25;4.47;;;3.70;;
579;SDS011;276;48.392;9.950;2023-03-19T06:28:53;3.63;;;2.90;;
579;SDS011;276;48.392;9.950;2023-03-19T06:31:18;4.43;;;3.30;;
579;SDS011;276;48.392;9.950;2023-03-19T06:33:45;3.43;;;3.23;;
579;SDS011;276;48.392;9.950;2023-03-19T06:36:11;3.10;;;2.80;;
579;SDS011;276;48.392;9.950;2023-03-19T06:38:41;3.80;;;3.50;;
579;SDS011;276;48.392;9.950;2023-03-19T06:41:06;4.27;;;3.47;;
579;SDS011;276;48.392;9.950;2023-03-19T06:43:32;3.70;;;3.40;;
579;SDS011;276;48.392;9.950;2023-03-19T06:46:01;2.93;;;2.73;;
579;SDS011;276;48.392;9.950;2023-03-19T06:48:32;4.20;;;3.50;;
579;SDS011;276;48.392;9.950;2023-03-19T06:51:00;4.00;;;3.60;;
579;SDS011;276;48.392;9.950;2023-03-19T06:53:26;4.60;;;3.90;;
579;SDS011;276;48.392;9.950;2023-03-19T06:55:52;3.57;;;3.27;;
579;SDS011;276;48.392;9.950;2023-03-19T06:58:20;5.27;;;4.03;;
579;SDS011;276;48.392;9.950;2023-03-19T07:00:50;2.97;;;2.77;;
579;SDS011;276;48.392;9.950;2023-03-19T07:03:16;3.63;;;3.33;;
579;SDS011;276;48.392;9.950;2023-03-19T07:05:42;5.10;;;3.40;;
579;SDS011;276;48.392;9.950;2023-03-19T07:08:07;4.53;;;3.30;;
579;SDS011;276;48.392;9.950;2023-03-19T07:10:36;4.27;;;3.87;;
579;SDS011;276;48.392;9.950;2023-03-19T07:13:03;3.77;;;3.47;;
579;SDS011;276;48.392;9.950;2023-03-19T07:15:29;3.83;;;3.50;;
579;SDS011;276;48.392;9.950;2023-03-19T07:17:55;2.87;;;2.67;;
579;SDS011;276;48.392;9.950;2023-03-19T07:20:21;3.37;;;3.10;;
579;SDS011;276;48.392;9.950;2023-03-19T07:22:49;4.90;;;4.50;;
579;SDS011;276;48.392;9.950;2023-03-19T07:25:18;7.60;;;6.90;;
579;SDS011;276;48.392;9.950;2023-03-19T07:27:48;7.97;;;7.27;;
579;SDS011;276;48.392;9.950;2023-03-19T07:32:40;6.13;;;4.57;;
579;SDS011;276;48.392;9.950;2023-03-19T07:35:08;4.33;;;3.80;;
579;SDS011;276;48.392;9.950;2023-03-19T07:37:39;4.27;;;3.93;;
579;SDS011;276;48.392;9.950;2023-03-19T07:40:06;4.97;;;4.57;;
579;SDS011;276;48.392;9.950;2023-03-19T07:42:33;4.13;;;3.80;;
579;SDS011;276;48.392;9.950;2023-03-19T07:45:00;4.50;;;4.10;;
579;SDS011;276;48.392;9.950;2023-03-19T07:47:27;4.00;;;3.60;;
579;SDS011;276;48.392;9.950;2023-03-19T07:49:52;4.17;;;3.87;;
579;SDS011;276;48.392;9.950;2023-03-19T07:52:18;6.83;;;6.23;;
579;SDS011;276;48.392;9.950;2023-03-19T07:54:44;11.40;;;10.30;;
579;SDS011;276;48.392;9.950;2023-03-19T07:57:10;10.70;;;9.70;;
579;SDS011;276;48.392;9.950;2023-03-19T07:59:35;12.43;;;8.67;;
579;SDS011;276;48.392;9.950;2023-03-19T08:02:01;8.83;;;7.97;;
579;SDS011;276;48.392;9.950;2023-03-19T08:04:29;7.13;;;6.47;;
579;SDS011;276;48.392;9.950;2023-03-19T08:06:56;6.67;;;5.97;;
579;SDS011;276;48.392;9.950;2023-03-19T08:09:25;5.97;;;5.47;;
579;SDS011;276;48.392;9.950;2023-03-19T08:11:53;5.87;;;5.37;;
579;SDS011;276;48.392;9.950;2023-03-19T08:14:18;4.73;;;4.33;;
579;SDS011;276;48.392;9.950;2023-03-19T08:16:46;5.60;;;5.20;;
579;SDS011;276;48.392;9.950;2023-03-19T08:19:15;7.30;;;5.83;;
579;SDS011;276;48.392;9.950;2023-03-19T08:21:43;4.90;;;4.50;;
579;SDS011;276;48.392;9.950;2023-03-19T08:24:11;4.80;;;4.00;;
579;SDS011;276;48.392;9.950;2023-03-19T08:26:45;5.77;;;3.87;;
579;SDS011;276;48.392;9.950;2023-03-19T08:29:13;3.37;;;3.07;;
579;SDS011;276;48.392;9.950;2023-03-19T08:31:41;4.00;;;3.30;;
579;SDS011;276;48.392;9.950;2023-03-19T08:34:09;3.53;;;3.20;;
579;SDS011;276;48.392;9.950;2023-03-19T08:36:35;2.93;;;2.73;;
579;SDS011;276;48.392;9.950;2023-03-19T08:39:03;3.27;;;2.97;;
579;SDS011;276;48.392;9.950;2023-03-19T08:41:29;4.60;;;4.27;;
579;SDS011;276;48.392;9.950;2023-03-19T08:43:55;3.57;;;3.27;;
579;SDS011;276;48.392;9.950;2023-03-19T08:46:21;3.93;;;3.43;;
579;SDS011;276;48.392;9.950;2023-03-19T08:48:49;5.03;;;3.57;;
579;SDS011;276;48.392;9.950;2023-03-19T08:51:14;4.47;;;4.03;;
579;SDS011;276;48.392;9.950;2023-03-19T08:53:42;5.27;;;3.20;;
579;SDS011;276;48.392;9.950;2023-03-19T08:56:08;3.90;;;3.60;;
579;SDS011;276;48.392;9.950;2023-03-19T08:58:34;6.27;;;4.43;;
579;SDS011;276;48.392;9.950;2023-03-19T09:01:09;6.30;;;4.60;;
579;SDS011;276;48.392;9.950;2023-03-19T09:03:37;4.77;;;4.47;;
579;SDS011;276;48.392;9.950;2023-03-19T09:06:04;7.03;;;5.00;;
579;SDS011;276;48.392;9.950;2023-03-19T09:08:33;4.00;;;3.67;;
579;SDS011;276;48.392;9.950;2023-03-19T09:10:59;4.60;;;3.80;;
579;SDS011;276;48.392;9.950;2023-03-19T09:13:28;4.10;;;3.63;;
579;SDS011;276;48.392;9.950;2023-03-19T09:15:54;6.03;;;3.97;;
579;SDS011;276;48.392;9.950;2023-03-19T09:18:22;3.40;;;3.10;;
579;SDS011;276;48.392;9.950;2023-03-19T09:20:49;4.50;;;4.10;;
579;SDS011;276;48.392;9.950;2023-03-19T09:23:18;4.23;;;3.93;;
579;SDS011;276;48.392;9.950;2023-03-19T09:25:47;4.30;;;3.90;;
579;SDS011;276;48.392;9.950;2023-03-19T09:28:13;3.73;;;3.40;;
579;SDS011;276;48.392;9.950;2023-03-19T09:30:39;4.13;;;3.63;;
579;SDS011;276;48.392;9.950;2023-03-19T09:33:04;4.17;;;3.80;;
579;SDS011;276;48.392;9.950;2023-03-19T09:35:32;4.57;;;3.87;;
579;SDS011;276;48.392;9.950;2023-03-19T09:38:00;4.93;;;3.10;;
579;SDS011;276;48.392;9.950;2023-03-19T09:40:36;4.00;;;3.70;;
579;SDS011;276;48.392;9.950;2023-03-19T09:43:15;4.20;;;3.80;;
579;SDS011;276;48.392;9.950;2023-03-19T09:45:44;3.47;;;3.27;;
579;SDS011;276;48.392;9.950;2023-03-19T09:48:38;2.90;;;2.70;;
579;SDS011;276;48.392;9.950;2023-03-19T09:51:05;4.37;;;3.97;;
579;SDS011;276;48.392;9.950;2023-03-19T09:53:39;4.27;;;3.87;;
579;SDS011;276;48.392;9.950;2023-03-19T09:56:11;8.50;;;4.13;;
579;SDS011;276;48.392;9.950;2023-03-19T09:58:43;3.73;;;2.73;;
579;SDS011;276;48.392;9.950;2023-03-19T10:01:16;2.73;;;2.53;;
579;SDS011;276;48.392;9.950;2023-03-19T10:06:34;2.30;;;2.10;;
579;SDS011;276;48.392;9.950;2023-03-19T10:15:09;3.37;;;3.10;;
579;SDS011;276;48.392;9.950;2023-03-19T10:22:56;3.67;;;3.37;;
579;SDS011;276;48.392;9.950;2023-03-19T10:25:34;3.23;;;2.93;;
579;SDS011;276;48.392;9.950;2023-03-19T10:28:10;6.97;;;3.57;;
579;SDS011;276;48.392;9.950;2023-03-19T10:30:41;2.73;;;2.53;;
579;SDS011;276;48.392;9.950;2023-03-19T10:33:25;3.47;;;3.17;;
579;SDS011;276;48.392;9.950;2023-03-19T10:36:04;4.43;;;3.07;;
579;SDS011;276;48.392;9.950;2023-03-19T10:38:38;4.40;;;2.70;;
579;SDS011;276;48.392;9.950;2023-03-19T10:43:55;5.20;;;3.07;;
579;SDS011;276;48.392;9.950;2023-03-19T10:46:30;3.87;;;2.10;;
579;SDS011;276;48.392;9.950;2023-03-19T10:49:06;4.33;;;2.60;;
579;SDS011;276;48.392;9.950;2023-03-19T10:51:37;2.80;;;2.13;;
579;SDS011;276;48.392;9.950;2023-03-19T10:54:12;3.30;;;2.10;;
579;SDS011;276;48.392;9.950;2023-03-19T10:56:50;4.37;;;2.90;;
579;SDS011;276;48.392;9.950;2023-03-19T10:59:31;1.93;;;1.83;;
579;SDS011;276;48.392;9.950;2023-03-19T11:07:41;3.30;;;3.00;;
579;SDS011;276;48.392;9.950;2023-03-19T11:10:13;3.17;;;2.87;;
579;SDS011;276;48.392;9.950;2023-03-19T11:12:40;2.40;;;2.20;;
579;SDS011;276;48.392;9.950;2023-03-19T11:15:15;2.40;;;2.20;;
579;SDS011;276;48.392;9.950;2023-03-19T11:20:21;2.73;;;2.30;;
579;SDS011;276;48.392;9.950;2023-03-19T11:22:53;2.63;;;2.43;;
579;SDS011;276;48.392;9.950;2023-03-19T11:25:32;4.43;;;3.07;;
579;SDS011;276;48.392;9.950;2023-03-19T11:33:57;3.97;;;2.40;;
579;SDS011;276;48.392;9.950;2023-03-19T11:36:54;2.93;;;2.13;;
579;SDS011;276;48.392;9.950;2023-03-19T11:50:48;4.20;;;2.80;;
579;SDS011;276;48.392;9.950;2023-03-19T11:56:18;3.37;;;3.00;;
579;SDS011;276;48.392;9.950;2023-03-19T12:01:40;4.63;;;2.40;;
579;SDS011;276;48.392;9.950;2023-03-19T12:10:02;4.03;;;3.07;;
579;SDS011;276;48.392;9.950;2023-03-19T12:12:59;5.63;;;3.53;;
579;SDS011;276;48.392;9.950;2023-03-19T12:29:43;5.00;;;3.30;;
579;SDS011;276;48.392;9.950;2023-03-19T12:32:24;4.17;;;3.77;;
579;SDS011;276;48.392;9.950;2023-03-19T12:35:03;3.37;;;3.07;;
579;SDS011;276;48.392;9.950;2023-03-19T12:37:46;3.20;;;2.70;;
579;SDS011;276;48.392;9.950;2023-03-19T12:40:36;3.60;;;3.40;;
579;SDS011;276;48.392;9.950;2023-03-19T12:51:44;3.10;;;2.90;;
579;SDS011;276;48.392;9.950;2023-03-19T12:54:25;3.40;;;3.10;;
579;SDS011;276;48.392;9.950;2023-03-19T12:56:55;2.90;;;2.70;;
579;SDS011;276;48.392;9.950;2023-03-19T12:59:40;7.73;;;4.90;;
579;SDS011;276;48.392;9.950;2023-03-19T13:02:36;3.57;;;3.30;;
579;SDS011;276;48.392;9.950;2023-03-19T13:10:30;4.03;;;3.60;;
579;SDS011;276;48.392;9.950;2023-03-19T13:12:56;5.57;;;3.70;;
579;SDS011;276;48.392;9.950;2023-03-19T13:15:36;4.57;;;3.47;;
579;SDS011;276;48.392;9.950;2023-03-19T13:21:27;4.37;;;3.00;;
579;SDS011;276;48.392;9.950;2023-03-19T13:24:03;5.13;;;3.50;;
579;SDS011;276;48.392;9.950;2023-03-19T13:26:40;4.20;;;3.80;;
579;SDS011;276;48.392;9.950;2023-03-19T13:29:28;3.90;;;3.43;;
579;SDS011;276;48.392;9.950;2023-03-19T13:34:48;4.30;;;3.40;;
579;SDS011;276;48.392;9.950;2023-03-19T13:37:16;4.23;;;3.93;;
579;SDS011;276;48.392;9.950;2023-03-19T13:39:45;4.10;;;3.70;;
579;SDS011;276;48.392;9.950;2023-03-19T13:42:22;3.93;;;3.30;;
579;SDS011;276;48.392;9.950;2023-03-19T13:45:25;4.50;;;3.87;;
579;SDS011;276;48.392;9.950;2023-03-19T13:51:01;4.40;;;4.03;;
579;SDS011;276;48.392;9.950;2023-03-19T13:56:00;5.30;;;3.67;;
579;SDS011;276;48.392;9.950;2023-03-19T13:58:29;4.03;;;3.40;;
579;SDS011;276;48.392;9.950;2023-03-19T14:06:38;4.57;;;4.17;;
579;SDS011;276;48.392;9.950;2023-03-19T14:12:11;3.90;;;3.60;;
579;SDS011;276;48.392;9.950;2023-03-19T14:17:17;4.00;;;3.50;;
579;SDS011;276;48.392;9.950;2023-03-19T14:19:51;3.20;;;3.00;;
579;SDS011;276;48.392;9.950;2023-03-19T14:22:30;5.30;;;3.67;;
579;SDS011;276;48.392;9.950;2023-03-19T14:27:46;6.77;;;4.10;;
579;SDS011;276;48.392;9.950;2023-03-19T14:30:20;4.07;;;3.10;;
579;SDS011;276;48.392;9.950;2023-03-19T14:32:54;4.37;;;3.97;;
579;SDS011;276;48.392;9.950;2023-03-19T14:35:25;4.80;;;4.10;;
579;SDS011;276;48.392;9.950;2023-03-19T14:37:51;4.80;;;4.40;;
579;SDS011;276;48.392;9.950;2023-03-19T14:46:02;4.70;;;4.30;;
579;SDS011;276;48.392;9.950;2023-03-19T14:48:44;3.90;;;3.50;;
579;SDS011;276;48.392;9.950;2023-03-19T14:56:40;3.90;;;3.50;;
579;SDS011;276;48.392;9.950;2023-03-19T14:59:11;3.83;;;3.50;;
579;SDS011;276;48.392;9.950;2023-03-19T15:01:39;5.03;;;4.57;;
579;SDS011;276;48.392;9.950;2023-03-19T15:04:09;6.53;;;3.77;;
579;SDS011;276;48.392;9.950;2023-03-19T15:06:42;3.90;;;3.53;;
579;SDS011;276;48.392;9.950;2023-03-19T15:09:31;4.80;;;3.50;;
579;SDS011;276;48.392;9.950;2023-03-19T15:17:28;1.93;;;1.73;;
579;SDS011;276;48.392;9.950;2023-03-19T15:19:58;1.77;;;1.63;;
579;SDS011;276;48.392;9.950;2023-03-19T15:25:04;2.23;;;2.07;;
579;SDS011;276;48.392;9.950;2023-03-19T15:27:37;2.17;;;2.07;;
579;SDS011;276;48.392;9.950;2023-03-19T15:30:25;2.37;;;2.20;;
579;SDS011;276;48.392;9.950;2023-03-19T15:32:52;2.43;;;2.17;;
579;SDS011;276;48.392;9.950;2023-03-19T15:35:22;3.87;;;2.77;;
579;SDS011;276;48.392;9.950;2023-03-19T15:37:55;3.10;;;2.80;;
579;SDS011;276;48.392;9.950;2023-03-19T15:40:26;2.20;;;2.00;;
579;SDS011;276;48.392;9.950;2023-03-19T15:42:59;2.37;;;2.17;;
579;SDS011;276;48.392;9.950;2023-03-19T15:45:28;2.60;;;2.40;;
579;SDS011;276;48.392;9.950;2023-03-19T15:50:51;4.30;;;2.70;;
579;SDS011;276;48.392;9.950;2023-03-19T15:53:27;3.17;;;2.97;;
579;SDS011;276;48.392;9.950;2023-03-19T15:55:58;2.43;;;2.30;;
579;SDS011;276;48.392;9.950;2023-03-19T15:58:26;2.63;;;2.43;;
579;SDS011;276;48.392;9.950;2023-03-19T16:00:54;2.60;;;2.23;;
579;SDS011;276;48.392;9.950;2023-03-19T16:03:27;4.30;;;2.80;;
579;SDS011;276;48.392;9.950;2023-03-19T16:06:12;2.50;;;2.30;;
579;SDS011;276;48.392;9.950;2023-03-19T16:08:46;2.20;;;2.00;;
579;SDS011;276;48.392;9.950;2023-03-19T16:14:00;1.67;;;1.57;;
579;SDS011;276;48.392;9.950;2023-03-19T16:16:33;1.90;;;1.73;;
579;SDS011;276;48.392;9.950;2023-03-19T16:19:02;2.87;;;2.20;;
579;SDS011;276;48.392;9.950;2023-03-19T16:21:34;2.70;;;2.50;;
579;SDS011;276;48.392;9.950;2023-03-19T16:24:05;2.90;;;2.70;;
579;SDS011;276;48.392;9.950;2023-03-19T16:26:48;2.67;;;2.33;;
579;SDS011;276;48.392;9.950;2023-03-19T16:29:19;2.60;;;2.40;;
579;SDS011;276;48.392;9.950;2023-03-19T16:31:52;2.13;;;2.03;;
579;SDS011;276;48.392;9.950;2023-03-19T16:34:41;3.20;;;2.30;;
579;SDS011;276;48.392;9.950;2023-03-19T16:37:24;2.60;;;2.17;;
579;SDS011;276;48.392;9.950;2023-03-19T16:39:58;3.83;;;2.50;;
579;SDS011;276;48.392;9.950;2023-03-19T16:44:51;4.63;;;2.70;;
579;SDS011;276;48.392;9.950;2023-03-19T16:47:17;2.33;;;2.17;;
579;SDS011;276;48.392;9.950;2023-03-19T16:49:44;3.00;;;2.80;;
579;SDS011;276;48.392;9.950;2023-03-19T16:52:16;3.37;;;2.80;;
579;SDS011;276;48.392;9.950;2023-03-19T16:54:44;4.97;;;3.20;;
579;SDS011;276;48.392;9.950;2023-03-19T16:57:13;3.70;;;2.73;;
579;SDS011;276;48.392;9.950;2023-03-19T16:59:40;3.27;;;2.77;;
579;SDS011;276;48.392;9.950;2023-03-19T17:02:13;2.93;;;2.73;;
579;SDS011;276;48.392;9.950;2023-03-19T17:04:44;2.60;;;2.40;;
579;SDS011;276;48.392;9.950;2023-03-19T17:07:12;1.97;;;1.87;;
579;SDS011;276;48.392;9.950;2023-03-19T17:09:38;1.70;;;1.60;;
579;SDS011;276;48.392;9.950;2023-03-19T17:12:06;3.33;;;1.70;;
579;SDS011;276;48.392;9.950;2023-03-19T17:14:36;1.67;;;1.40;;
579;SDS011;276;48.392;9.950;2023-03-19T17:17:02;1.90;;;1.43;;
579;SDS011;276;48.392;9.950;2023-03-19T17:19:32;1.70;;;1.20;;
579;SDS011;276;48.392;9.950;2023-03-19T17:21:59;1.43;;;1.33;;
579;SDS011;276;48.392;9.950;2023-03-19T17:24:29;2.83;;;2.63;;
579;SDS011;276;48.392;9.950;2023-03-19T17:27:00;3.23;;;2.40;;
579;SDS011;276;48.392;9.950;2023-03-19T17:29:27;2.70;;;2.47;;
579;SDS011;276;48.392;9.950;2023-03-19T17:31:56;3.50;;;2.97;;
579;SDS011;276;48.392;9.950;2023-03-19T17:34:24;5.53;;;4.10;;
579;SDS011;276;48.392;9.950;2023-03-19T17:36:58;3.73;;;3.43;;
579;SDS011;276;48.392;9.950;2023-03-19T17:39:30;4.23;;;3.93;;
579;SDS011;276;48.392;9.950;2023-03-19T17:42:00;4.23;;;3.90;;
579;SDS011;276;48.392;9.950;2023-03-19T17:44:26;5.77;;;5.17;;
579;SDS011;276;48.392;9.950;2023-03-19T17:46:52;5.53;;;5.13;;
579;SDS011;276;48.392;9.950;2023-03-19T17:49:29;5.50;;;4.40;;
579;SDS011;276;48.392;9.950;2023-03-19T17:51:59;4.13;;;3.83;;
579;SDS011;276;48.392;9.950;2023-03-19T17:54:30;2.90;;;2.70;;
579;SDS011;276;48.392;9.950;2023-03-19T17:56:56;5.67;;;2.90;;
579;SDS011;276;48.392;9.950;2023-03-19T17:59:23;3.37;;;2.97;;
579;SDS011;276;48.392;9.950;2023-03-19T18:01:51;2.77;;;2.57;;
579;SDS011;276;48.392;9.950;2023-03-19T18:04:17;1.33;;;0.90;;
579;SDS011;276;48.392;9.950;2023-03-19T18:06:48;1.00;;;0.90;;
579;SDS011;276;48.392;9.950;2023-03-19T18:09:19;1.23;;;0.97;;
579;SDS011;276;48.392;9.950;2023-03-19T18:11:47;1.63;;;1.13;;
579;SDS011;276;48.392;9.950;2023-03-19T18:14:16;2.10;;;1.23;;
579;SDS011;276;48.392;9.950;2023-03-19T18:16:44;1.10;;;1.00;;
579;SDS011;276;48.392;9.950;2023-03-19T18:19:32;1.23;;;1.13;;
579;SDS011;276;48.392;9.950;2023-03-19T18:22:01;1.60;;;1.50;;